sensor_id;sensor_type;location;lat;lon;timestamp;P1;durP1;ratioP1;P2;durP2;ratioP2
7829;SDS011;3960;51.86894000;5.39848000;2023-06-14T00:02:03;5.43;;;3.10;;
7829;SDS011;3960;51.86894000;5.39848000;2023-06-14T00:04:28;4.50;;;2.70;;
7829;SDS011;3960;51.86894000;5.39848000;2023-06-14T00:06:54;6.07;;;3.30;;
7829;SDS011;3960;51.86894000;5.39848000;2023-06-14T00:09:21;7.53;;;3.10;;
7829;SDS011;3960;51.86894000;5.39848000;2023-06-14T00:11:47;4.03;;;2.80;;
7829;SDS011;3960;51.86894000;5.39848000;2023-06-14T00:14:13;5.82;;;3.10;;
7829;SDS011;3960;51.86894000;5.39848000;2023-06-14T00:16:39;13.43;;;2.92;;
7829;SDS011;3960;51.86894000;5.39848000;2023-06-14T00:19:07;8.20;;;2.90;;
7829;SDS011;3960;51.86894000;5.39848000;2023-06-14T00:21:35;6.00;;;3.10;;
7829;SDS011;3960;51.86894000;5.39848000;2023-06-14T00:24:01;7.32;;;3.10;;
7829;SDS011;3960;51.86894000;5.39848000;2023-06-14T00:26:26;4.47;;;2.72;;
7829;SDS011;3960;51.86894000;5.39848000;2023-06-14T00:28:52;7.53;;;3.08;;
7829;SDS011;3960;51.86894000;5.39848000;2023-06-14T00:31:18;8.45;;;3.10;;
7829;SDS011;3960;51.86894000;5.39848000;2023-06-14T00:33:44;8.05;;;3.50;;
7829;SDS011;3960;51.86894000;5.39848000;2023-06-14T00:36:10;5.10;;;2.70;;
7829;SDS011;3960;51.86894000;5.39848000;2023-06-14T00:38:35;12.45;;;3.15;;
7829;SDS011;3960;51.86894000;5.39848000;2023-06-14T00:41:01;6.20;;;2.95;;
7829;SDS011;3960;51.86894000;5.39848000;2023-06-14T00:43:26;7.55;;;2.95;;
7829;SDS011;3960;51.86894000;5.39848000;2023-06-14T00:45:54;5.07;;;2.95;;
7829;SDS011;3960;51.86894000;5.39848000;2023-06-14T00:48:19;9.30;;;3.05;;
7829;SDS011;3960;51.86894000;5.39848000;2023-06-14T00:50:45;5.35;;;2.83;;
7829;SDS011;3960;51.86894000;5.39848000;2023-06-14T00:53:11;3.95;;;2.65;;
7829;SDS011;3960;51.86894000;5.39848000;2023-06-14T00:55:40;8.07;;;2.80;;
7829;SDS011;3960;51.86894000;5.39848000;2023-06-14T00:58:06;8.55;;;3.00;;
7829;SDS011;3960;51.86894000;5.39848000;2023-06-14T01:00:31;10.93;;;2.97;;
7829;SDS011;3960;51.86894000;5.39848000;2023-06-14T01:02:57;6.93;;;3.05;;
7829;SDS011;3960;51.86894000;5.39848000;2023-06-14T01:05:22;6.57;;;3.00;;
7829;SDS011;3960;51.86894000;5.39848000;2023-06-14T01:13:36;4.32;;;2.65;;
7829;SDS011;3960;51.86894000;5.39848000;2023-06-14T01:16:04;4.68;;;2.85;;
7829;SDS011;3960;51.86894000;5.39848000;2023-06-14T01:18:31;8.77;;;3.45;;
7829;SDS011;3960;51.86894000;5.39848000;2023-06-14T01:21:00;6.57;;;3.05;;
7829;SDS011;3960;51.86894000;5.39848000;2023-06-14T01:23:30;8.00;;;3.05;;
7829;SDS011;3960;51.86894000;5.39848000;2023-06-14T01:25:57;11.75;;;2.95;;
7829;SDS011;3960;51.86894000;5.39848000;2023-06-14T01:28:23;5.00;;;3.13;;
7829;SDS011;3960;51.86894000;5.39848000;2023-06-14T01:30:52;10.43;;;3.00;;
7829;SDS011;3960;51.86894000;5.39848000;2023-06-14T01:33:21;7.22;;;2.90;;
7829;SDS011;3960;51.86894000;5.39848000;2023-06-14T01:35:49;6.95;;;2.80;;
7829;SDS011;3960;51.86894000;5.39848000;2023-06-14T01:38:17;7.82;;;2.97;;
7829;SDS011;3960;51.86894000;5.39848000;2023-06-14T01:40:45;5.63;;;3.00;;
7829;SDS011;3960;51.86894000;5.39848000;2023-06-14T01:43:15;6.85;;;2.60;;
7829;SDS011;3960;51.86894000;5.39848000;2023-06-14T01:45:41;9.88;;;2.83;;
7829;SDS011;3960;51.86894000;5.39848000;2023-06-14T01:48:10;8.93;;;3.17;;
7829;SDS011;3960;51.86894000;5.39848000;2023-06-14T01:50:37;4.18;;;2.85;;
7829;SDS011;3960;51.86894000;5.39848000;2023-06-14T01:53:02;6.65;;;2.83;;
7829;SDS011;3960;51.86894000;5.39848000;2023-06-14T01:55:28;6.53;;;2.80;;
7829;SDS011;3960;51.86894000;5.39848000;2023-06-14T01:57:53;8.80;;;3.22;;
7829;SDS011;3960;51.86894000;5.39848000;2023-06-14T02:00:19;11.38;;;3.00;;
7829;SDS011;3960;51.86894000;5.39848000;2023-06-14T02:02:46;6.72;;;2.70;;
7829;SDS011;3960;51.86894000;5.39848000;2023-06-14T02:05:14;4.90;;;3.05;;
7829;SDS011;3960;51.86894000;5.39848000;2023-06-14T02:07:43;4.97;;;2.75;;
7829;SDS011;3960;51.86894000;5.39848000;2023-06-14T02:10:09;6.22;;;2.75;;
7829;SDS011;3960;51.86894000;5.39848000;2023-06-14T02:12:34;8.20;;;2.97;;
7829;SDS011;3960;51.86894000;5.39848000;2023-06-14T02:15:00;10.82;;;3.15;;
7829;SDS011;3960;51.86894000;5.39848000;2023-06-14T02:17:25;10.38;;;2.92;;
7829;SDS011;3960;51.86894000;5.39848000;2023-06-14T02:19:51;5.03;;;2.85;;
7829;SDS011;3960;51.86894000;5.39848000;2023-06-14T02:22:17;9.02;;;2.78;;
7829;SDS011;3960;51.86894000;5.39848000;2023-06-14T02:24:42;6.97;;;3.03;;
7829;SDS011;3960;51.86894000;5.39848000;2023-06-14T02:27:08;5.65;;;3.10;;
7829;SDS011;3960;51.86894000;5.39848000;2023-06-14T02:29:37;6.05;;;3.13;;
7829;SDS011;3960;51.86894000;5.39848000;2023-06-14T02:32:03;7.20;;;2.80;;
7829;SDS011;3960;51.86894000;5.39848000;2023-06-14T02:34:29;12.55;;;3.10;;
7829;SDS011;3960;51.86894000;5.39848000;2023-06-14T02:36:55;11.30;;;2.67;;
7829;SDS011;3960;51.86894000;5.39848000;2023-06-14T02:39:22;12.48;;;2.90;;
7829;SDS011;3960;51.86894000;5.39848000;2023-06-14T02:41:48;6.38;;;3.15;;
7829;SDS011;3960;51.86894000;5.39848000;2023-06-14T02:44:23;10.23;;;2.95;;
7829;SDS011;3960;51.86894000;5.39848000;2023-06-14T02:46:50;7.72;;;2.90;;
7829;SDS011;3960;51.86894000;5.39848000;2023-06-14T02:49:16;6.07;;;3.13;;
7829;SDS011;3960;51.86894000;5.39848000;2023-06-14T02:51:41;7.00;;;2.92;;
7829;SDS011;3960;51.86894000;5.39848000;2023-06-14T02:54:06;18.33;;;3.00;;
7829;SDS011;3960;51.86894000;5.39848000;2023-06-14T02:56:32;8.73;;;3.08;;
7829;SDS011;3960;51.86894000;5.39848000;2023-06-14T02:58:57;7.60;;;3.00;;
7829;SDS011;3960;51.86894000;5.39848000;2023-06-14T03:01:25;6.40;;;2.83;;
7829;SDS011;3960;51.86894000;5.39848000;2023-06-14T03:03:58;6.25;;;2.90;;
7829;SDS011;3960;51.86894000;5.39848000;2023-06-14T03:06:24;3.28;;;2.80;;
7829;SDS011;3960;51.86894000;5.39848000;2023-06-14T03:08:50;4.15;;;2.70;;
7829;SDS011;3960;51.86894000;5.39848000;2023-06-14T03:11:16;10.35;;;3.35;;
7829;SDS011;3960;51.86894000;5.39848000;2023-06-14T03:13:45;10.32;;;3.00;;
7829;SDS011;3960;51.86894000;5.39848000;2023-06-14T03:16:11;6.22;;;2.80;;
7829;SDS011;3960;51.86894000;5.39848000;2023-06-14T03:18:37;8.77;;;3.08;;
7829;SDS011;3960;51.86894000;5.39848000;2023-06-14T03:21:02;6.65;;;2.97;;
7829;SDS011;3960;51.86894000;5.39848000;2023-06-14T03:23:28;5.20;;;2.90;;
7829;SDS011;3960;51.86894000;5.39848000;2023-06-14T03:25:53;9.65;;;3.00;;
7829;SDS011;3960;51.86894000;5.39848000;2023-06-14T03:28:19;7.75;;;3.20;;
7829;SDS011;3960;51.86894000;5.39848000;2023-06-14T03:30:45;6.53;;;2.90;;
7829;SDS011;3960;51.86894000;5.39848000;2023-06-14T03:33:10;5.25;;;2.88;;
7829;SDS011;3960;51.86894000;5.39848000;2023-06-14T03:35:36;4.38;;;2.72;;
7829;SDS011;3960;51.86894000;5.39848000;2023-06-14T03:38:01;9.93;;;2.90;;
7829;SDS011;3960;51.86894000;5.39848000;2023-06-14T03:40:27;7.18;;;3.30;;
7829;SDS011;3960;51.86894000;5.39848000;2023-06-14T03:42:56;5.68;;;3.03;;
7829;SDS011;3960;51.86894000;5.39848000;2023-06-14T03:45:21;5.70;;;3.00;;
7829;SDS011;3960;51.86894000;5.39848000;2023-06-14T03:47:47;5.30;;;2.90;;
7829;SDS011;3960;51.86894000;5.39848000;2023-06-14T03:50:12;5.93;;;2.95;;
7829;SDS011;3960;51.86894000;5.39848000;2023-06-14T03:52:38;7.18;;;3.10;;
7829;SDS011;3960;51.86894000;5.39848000;2023-06-14T03:55:03;6.35;;;2.50;;
7829;SDS011;3960;51.86894000;5.39848000;2023-06-14T03:57:29;5.20;;;2.90;;
7829;SDS011;3960;51.86894000;5.39848000;2023-06-14T03:59:55;8.00;;;2.90;;
7829;SDS011;3960;51.86894000;5.39848000;2023-06-14T04:02:23;7.07;;;2.90;;
7829;SDS011;3960;51.86894000;5.39848000;2023-06-14T04:04:49;6.65;;;2.67;;
7829;SDS011;3960;51.86894000;5.39848000;2023-06-14T04:07:14;7.22;;;2.95;;
7829;SDS011;3960;51.86894000;5.39848000;2023-06-14T04:09:40;10.43;;;2.72;;
7829;SDS011;3960;51.86894000;5.39848000;2023-06-14T04:12:06;7.25;;;2.88;;
7829;SDS011;3960;51.86894000;5.39848000;2023-06-14T04:14:33;7.40;;;2.80;;
7829;SDS011;3960;51.86894000;5.39848000;2023-06-14T04:16:59;7.70;;;3.03;;
7829;SDS011;3960;51.86894000;5.39848000;2023-06-14T04:19:25;8.48;;;2.83;;
7829;SDS011;3960;51.86894000;5.39848000;2023-06-14T04:21:50;5.75;;;3.40;;
7829;SDS011;3960;51.86894000;5.39848000;2023-06-14T04:24:16;7.57;;;2.80;;
7829;SDS011;3960;51.86894000;5.39848000;2023-06-14T04:26:42;6.78;;;2.83;;
7829;SDS011;3960;51.86894000;5.39848000;2023-06-14T04:29:11;8.20;;;3.05;;
7829;SDS011;3960;51.86894000;5.39848000;2023-06-14T04:31:41;6.15;;;2.75;;
7829;SDS011;3960;51.86894000;5.39848000;2023-06-14T04:34:10;5.60;;;2.78;;
7829;SDS011;3960;51.86894000;5.39848000;2023-06-14T04:36:41;4.10;;;2.80;;
7829;SDS011;3960;51.86894000;5.39848000;2023-06-14T04:39:08;7.43;;;2.92;;
7829;SDS011;3960;51.86894000;5.39848000;2023-06-14T04:41:33;8.02;;;2.72;;
7829;SDS011;3960;51.86894000;5.39848000;2023-06-14T04:44:00;10.15;;;3.10;;
7829;SDS011;3960;51.86894000;5.39848000;2023-06-14T04:46:29;6.40;;;2.75;;
7829;SDS011;3960;51.86894000;5.39848000;2023-06-14T04:48:57;7.72;;;2.72;;
7829;SDS011;3960;51.86894000;5.39848000;2023-06-14T04:51:23;8.65;;;2.97;;
7829;SDS011;3960;51.86894000;5.39848000;2023-06-14T04:53:55;9.80;;;2.83;;
7829;SDS011;3960;51.86894000;5.39848000;2023-06-14T04:56:24;12.10;;;2.60;;
7829;SDS011;3960;51.86894000;5.39848000;2023-06-14T04:58:50;4.80;;;2.90;;
7829;SDS011;3960;51.86894000;5.39848000;2023-06-14T05:01:17;6.35;;;2.90;;
7829;SDS011;3960;51.86894000;5.39848000;2023-06-14T05:03:43;7.80;;;2.70;;
7829;SDS011;3960;51.86894000;5.39848000;2023-06-14T05:06:10;7.38;;;2.72;;
7829;SDS011;3960;51.86894000;5.39848000;2023-06-14T05:08:40;4.65;;;2.80;;
7829;SDS011;3960;51.86894000;5.39848000;2023-06-14T05:11:06;4.43;;;2.70;;
7829;SDS011;3960;51.86894000;5.39848000;2023-06-14T05:13:34;6.13;;;3.35;;
7829;SDS011;3960;51.86894000;5.39848000;2023-06-14T05:16:00;8.80;;;2.85;;
7829;SDS011;3960;51.86894000;5.39848000;2023-06-14T05:18:26;6.50;;;2.90;;
7829;SDS011;3960;51.86894000;5.39848000;2023-06-14T05:20:51;10.82;;;2.88;;
7829;SDS011;3960;51.86894000;5.39848000;2023-06-14T05:23:16;8.10;;;2.63;;
7829;SDS011;3960;51.86894000;5.39848000;2023-06-14T05:25:47;9.45;;;2.70;;
7829;SDS011;3960;51.86894000;5.39848000;2023-06-14T05:28:13;8.75;;;3.10;;
7829;SDS011;3960;51.86894000;5.39848000;2023-06-14T05:30:39;6.75;;;2.80;;
7829;SDS011;3960;51.86894000;5.39848000;2023-06-14T05:33:07;9.68;;;4.28;;
7829;SDS011;3960;51.86894000;5.39848000;2023-06-14T05:35:33;9.70;;;3.10;;
7829;SDS011;3960;51.86894000;5.39848000;2023-06-14T05:37:58;15.60;;;3.42;;
7829;SDS011;3960;51.86894000;5.39848000;2023-06-14T05:40:27;9.10;;;2.70;;
7829;SDS011;3960;51.86894000;5.39848000;2023-06-14T05:42:54;11.93;;;3.38;;
7829;SDS011;3960;51.86894000;5.39848000;2023-06-14T05:45:28;12.32;;;3.20;;
7829;SDS011;3960;51.86894000;5.39848000;2023-06-14T05:48:05;8.88;;;2.97;;
7829;SDS011;3960;51.86894000;5.39848000;2023-06-14T05:50:33;7.25;;;2.92;;
7829;SDS011;3960;51.86894000;5.39848000;2023-06-14T05:52:58;9.88;;;2.80;;
7829;SDS011;3960;51.86894000;5.39848000;2023-06-14T05:55:24;6.05;;;2.90;;
7829;SDS011;3960;51.86894000;5.39848000;2023-06-14T05:57:56;9.70;;;2.90;;
7829;SDS011;3960;51.86894000;5.39848000;2023-06-14T06:00:24;4.65;;;2.63;;
7829;SDS011;3960;51.86894000;5.39848000;2023-06-14T06:02:52;8.00;;;2.47;;
7829;SDS011;3960;51.86894000;5.39848000;2023-06-14T06:05:22;8.20;;;2.47;;
7829;SDS011;3960;51.86894000;5.39848000;2023-06-14T06:07:47;4.07;;;2.53;;
7829;SDS011;3960;51.86894000;5.39848000;2023-06-14T06:10:13;7.43;;;3.53;;
7829;SDS011;3960;51.86894000;5.39848000;2023-06-14T06:12:51;7.72;;;2.90;;
7829;SDS011;3960;51.86894000;5.39848000;2023-06-14T06:15:19;6.53;;;2.80;;
7829;SDS011;3960;51.86894000;5.39848000;2023-06-14T06:17:59;6.68;;;3.10;;
7829;SDS011;3960;51.86894000;5.39848000;2023-06-14T06:20:25;11.35;;;2.92;;
7829;SDS011;3960;51.86894000;5.39848000;2023-06-14T06:22:57;4.90;;;2.80;;
7829;SDS011;3960;51.86894000;5.39848000;2023-06-14T06:25:32;9.70;;;2.85;;
7829;SDS011;3960;51.86894000;5.39848000;2023-06-14T06:28:00;8.60;;;2.95;;
7829;SDS011;3960;51.86894000;5.39848000;2023-06-14T06:30:29;5.07;;;3.00;;
7829;SDS011;3960;51.86894000;5.39848000;2023-06-14T06:32:55;6.68;;;2.50;;
7829;SDS011;3960;51.86894000;5.39848000;2023-06-14T06:35:31;8.88;;;2.85;;
7829;SDS011;3960;51.86894000;5.39848000;2023-06-14T06:37:59;7.45;;;2.78;;
7829;SDS011;3960;51.86894000;5.39848000;2023-06-14T06:40:26;6.50;;;3.10;;
7829;SDS011;3960;51.86894000;5.39848000;2023-06-14T06:43:02;8.93;;;2.65;;
7829;SDS011;3960;51.86894000;5.39848000;2023-06-14T06:45:30;9.27;;;3.33;;
7829;SDS011;3960;51.86894000;5.39848000;2023-06-14T06:47:56;12.02;;;3.00;;
7829;SDS011;3960;51.86894000;5.39848000;2023-06-14T06:50:21;5.10;;;2.80;;
7829;SDS011;3960;51.86894000;5.39848000;2023-06-14T06:52:55;7.95;;;2.78;;
7829;SDS011;3960;51.86894000;5.39848000;2023-06-14T06:55:21;8.77;;;2.80;;
7829;SDS011;3960;51.86894000;5.39848000;2023-06-14T06:57:46;8.32;;;3.10;;
7829;SDS011;3960;51.86894000;5.39848000;2023-06-14T07:00:18;8.48;;;3.30;;
7829;SDS011;3960;51.86894000;5.39848000;2023-06-14T07:02:46;6.40;;;2.92;;
7829;SDS011;3960;51.86894000;5.39848000;2023-06-14T07:05:17;5.18;;;2.80;;
7829;SDS011;3960;51.86894000;5.39848000;2023-06-14T07:07:46;3.40;;;2.70;;
7829;SDS011;3960;51.86894000;5.39848000;2023-06-14T07:10:34;6.88;;;3.10;;
7829;SDS011;3960;51.86894000;5.39848000;2023-06-14T07:13:07;6.70;;;2.95;;
7829;SDS011;3960;51.86894000;5.39848000;2023-06-14T07:15:32;9.98;;;3.20;;
7829;SDS011;3960;51.86894000;5.39848000;2023-06-14T07:17:58;11.43;;;2.90;;
7829;SDS011;3960;51.86894000;5.39848000;2023-06-14T07:20:25;7.55;;;3.53;;
7829;SDS011;3960;51.86894000;5.39848000;2023-06-14T07:22:50;13.00;;;3.05;;
7829;SDS011;3960;51.86894000;5.39848000;2023-06-14T07:25:16;7.72;;;2.70;;
7829;SDS011;3960;51.86894000;5.39848000;2023-06-14T07:27:45;5.30;;;3.00;;
7829;SDS011;3960;51.86894000;5.39848000;2023-06-14T07:30:11;6.93;;;2.90;;
7829;SDS011;3960;51.86894000;5.39848000;2023-06-14T07:32:36;7.93;;;2.92;;
7829;SDS011;3960;51.86894000;5.39848000;2023-06-14T07:35:02;7.25;;;2.90;;
7829;SDS011;3960;51.86894000;5.39848000;2023-06-14T07:37:31;10.65;;;2.95;;
7829;SDS011;3960;51.86894000;5.39848000;2023-06-14T07:39:59;8.98;;;2.50;;
7829;SDS011;3960;51.86894000;5.39848000;2023-06-14T07:42:24;6.85;;;2.90;;
7829;SDS011;3960;51.86894000;5.39848000;2023-06-14T07:44:50;7.93;;;2.65;;
7829;SDS011;3960;51.86894000;5.39848000;2023-06-14T07:47:17;8.75;;;3.00;;
7829;SDS011;3960;51.86894000;5.39848000;2023-06-14T07:49:43;6.75;;;2.97;;
7829;SDS011;3960;51.86894000;5.39848000;2023-06-14T07:52:14;7.97;;;2.70;;
7829;SDS011;3960;51.86894000;5.39848000;2023-06-14T07:54:42;5.72;;;2.38;;
7829;SDS011;3960;51.86894000;5.39848000;2023-06-14T07:57:10;10.63;;;3.15;;
7829;SDS011;3960;51.86894000;5.39848000;2023-06-14T07:59:38;8.85;;;3.20;;
7829;SDS011;3960;51.86894000;5.39848000;2023-06-14T08:02:04;9.00;;;2.55;;
7829;SDS011;3960;51.86894000;5.39848000;2023-06-14T08:04:29;8.55;;;2.60;;
7829;SDS011;3960;51.86894000;5.39848000;2023-06-14T08:06:58;4.93;;;2.63;;
7829;SDS011;3960;51.86894000;5.39848000;2023-06-14T08:09:27;5.90;;;2.60;;
7829;SDS011;3960;51.86894000;5.39848000;2023-06-14T08:11:54;10.57;;;2.60;;
7829;SDS011;3960;51.86894000;5.39848000;2023-06-14T08:14:22;10.70;;;2.40;;
7829;SDS011;3960;51.86894000;5.39848000;2023-06-14T08:16:48;11.98;;;2.50;;
7829;SDS011;3960;51.86894000;5.39848000;2023-06-14T08:19:16;6.88;;;2.47;;
7829;SDS011;3960;51.86894000;5.39848000;2023-06-14T08:21:41;9.60;;;2.40;;
7829;SDS011;3960;51.86894000;5.39848000;2023-06-14T08:24:08;9.80;;;2.30;;
7829;SDS011;3960;51.86894000;5.39848000;2023-06-14T08:26:37;5.82;;;2.53;;
7829;SDS011;3960;51.86894000;5.39848000;2023-06-14T08:29:04;5.68;;;2.10;;
7829;SDS011;3960;51.86894000;5.39848000;2023-06-14T08:31:35;9.20;;;2.10;;
7829;SDS011;3960;51.86894000;5.39848000;2023-06-14T08:34:02;7.18;;;2.42;;
7829;SDS011;3960;51.86894000;5.39848000;2023-06-14T08:36:31;7.57;;;2.08;;
7829;SDS011;3960;51.86894000;5.39848000;2023-06-14T08:38:59;6.47;;;2.10;;
7829;SDS011;3960;51.86894000;5.39848000;2023-06-14T08:41:24;8.05;;;2.10;;
7829;SDS011;3960;51.86894000;5.39848000;2023-06-14T08:43:51;6.18;;;2.15;;
7829;SDS011;3960;51.86894000;5.39848000;2023-06-14T08:46:18;3.63;;;1.80;;
7829;SDS011;3960;51.86894000;5.39848000;2023-06-14T08:48:51;3.38;;;2.10;;
7829;SDS011;3960;51.86894000;5.39848000;2023-06-14T08:51:38;3.78;;;1.73;;
7829;SDS011;3960;51.86894000;5.39848000;2023-06-14T08:54:05;3.95;;;2.25;;
7829;SDS011;3960;51.86894000;5.39848000;2023-06-14T08:56:32;11.43;;;2.08;;
7829;SDS011;3960;51.86894000;5.39848000;2023-06-14T08:58:59;4.28;;;1.63;;
7829;SDS011;3960;51.86894000;5.39848000;2023-06-14T09:01:35;3.40;;;1.70;;
7829;SDS011;3960;51.86894000;5.39848000;2023-06-14T09:04:03;4.47;;;1.75;;
7829;SDS011;3960;51.86894000;5.39848000;2023-06-14T09:06:30;4.95;;;1.77;;
7829;SDS011;3960;51.86894000;5.39848000;2023-06-14T09:08:59;5.05;;;1.88;;
7829;SDS011;3960;51.86894000;5.39848000;2023-06-14T09:11:24;9.30;;;1.80;;
7829;SDS011;3960;51.86894000;5.39848000;2023-06-14T09:13:51;3.70;;;1.67;;
7829;SDS011;3960;51.86894000;5.39848000;2023-06-14T09:16:17;8.52;;;1.75;;
7829;SDS011;3960;51.86894000;5.39848000;2023-06-14T09:18:45;1.80;;;1.63;;
7829;SDS011;3960;51.86894000;5.39848000;2023-06-14T09:21:17;4.20;;;1.60;;
7829;SDS011;3960;51.86894000;5.39848000;2023-06-14T09:23:44;4.30;;;1.45;;
7829;SDS011;3960;51.86894000;5.39848000;2023-06-14T09:28:50;3.85;;;1.70;;
7829;SDS011;3960;51.86894000;5.39848000;2023-06-14T09:31:23;4.20;;;1.70;;
7829;SDS011;3960;51.86894000;5.39848000;2023-06-14T09:33:59;5.35;;;1.60;;
7829;SDS011;3960;51.86894000;5.39848000;2023-06-14T09:36:27;2.60;;;1.48;;
7829;SDS011;3960;51.86894000;5.39848000;2023-06-14T09:39:00;3.63;;;1.63;;
7829;SDS011;3960;51.86894000;5.39848000;2023-06-14T09:41:36;6.50;;;1.70;;
7829;SDS011;3960;51.86894000;5.39848000;2023-06-14T09:44:04;3.88;;;1.70;;
7829;SDS011;3960;51.86894000;5.39848000;2023-06-14T09:46:38;1.70;;;1.60;;
7829;SDS011;3960;51.86894000;5.39848000;2023-06-14T09:49:06;3.22;;;1.90;;
7829;SDS011;3960;51.86894000;5.39848000;2023-06-14T09:51:41;6.25;;;2.05;;
7829;SDS011;3960;51.86894000;5.39848000;2023-06-14T09:54:12;4.63;;;1.77;;
7829;SDS011;3960;51.86894000;5.39848000;2023-06-14T09:56:46;6.35;;;1.80;;
7829;SDS011;3960;51.86894000;5.39848000;2023-06-14T09:59:14;3.13;;;1.52;;
7829;SDS011;3960;51.86894000;5.39848000;2023-06-14T10:01:43;4.97;;;1.80;;
7829;SDS011;3960;51.86894000;5.39848000;2023-06-14T10:04:11;5.28;;;1.98;;
7829;SDS011;3960;51.86894000;5.39848000;2023-06-14T10:06:46;4.28;;;1.77;;
7829;SDS011;3960;51.86894000;5.39848000;2023-06-14T10:09:14;6.18;;;2.13;;
7829;SDS011;3960;51.86894000;5.39848000;2023-06-14T10:11:42;3.35;;;1.88;;
7829;SDS011;3960;51.86894000;5.39848000;2023-06-14T10:14:16;4.55;;;2.00;;
7829;SDS011;3960;51.86894000;5.39848000;2023-06-14T10:16:52;3.58;;;1.80;;
7829;SDS011;3960;51.86894000;5.39848000;2023-06-14T10:19:44;4.50;;;1.90;;
7829;SDS011;3960;51.86894000;5.39848000;2023-06-14T10:22:18;3.17;;;1.88;;
7829;SDS011;3960;51.86894000;5.39848000;2023-06-14T10:24:50;3.28;;;1.70;;
7829;SDS011;3960;51.86894000;5.39848000;2023-06-14T10:27:18;4.55;;;1.73;;
7829;SDS011;3960;51.86894000;5.39848000;2023-06-14T10:32:32;3.80;;;1.90;;
7829;SDS011;3960;51.86894000;5.39848000;2023-06-14T10:34:58;7.20;;;1.90;;
7829;SDS011;3960;51.86894000;5.39848000;2023-06-14T10:37:36;2.47;;;1.80;;
7829;SDS011;3960;51.86894000;5.39848000;2023-06-14T10:40:01;4.40;;;1.80;;
7829;SDS011;3960;51.86894000;5.39848000;2023-06-14T10:42:28;3.00;;;1.90;;
7829;SDS011;3960;51.86894000;5.39848000;2023-06-14T10:45:00;2.08;;;1.88;;
7829;SDS011;3960;51.86894000;5.39848000;2023-06-14T10:47:35;1.58;;;1.48;;
7829;SDS011;3960;51.86894000;5.39848000;2023-06-14T10:52:39;3.30;;;1.80;;
7829;SDS011;3960;51.86894000;5.39848000;2023-06-14T10:55:15;11.48;;;1.95;;
7829;SDS011;3960;51.86894000;5.39848000;2023-06-14T10:57:48;2.90;;;1.80;;
7829;SDS011;3960;51.86894000;5.39848000;2023-06-14T11:00:21;5.78;;;1.80;;
7829;SDS011;3960;51.86894000;5.39848000;2023-06-14T11:05:16;2.15;;;1.80;;
7829;SDS011;3960;51.86894000;5.39848000;2023-06-14T11:07:58;9.38;;;1.85;;
7829;SDS011;3960;51.86894000;5.39848000;2023-06-14T11:13:04;2.08;;;1.75;;
7829;SDS011;3960;51.86894000;5.39848000;2023-06-14T11:15:30;3.50;;;1.90;;
7829;SDS011;3960;51.86894000;5.39848000;2023-06-14T11:17:57;5.78;;;1.95;;
7829;SDS011;3960;51.86894000;5.39848000;2023-06-14T11:20:29;6.72;;;2.35;;
7829;SDS011;3960;51.86894000;5.39848000;2023-06-14T11:22:59;6.72;;;1.70;;
7829;SDS011;3960;51.86894000;5.39848000;2023-06-14T11:25:27;10.60;;;2.00;;
7829;SDS011;3960;51.86894000;5.39848000;2023-06-14T11:27:58;4.43;;;1.90;;
7829;SDS011;3960;51.86894000;5.39848000;2023-06-14T11:30:26;3.63;;;1.80;;
7829;SDS011;3960;51.86894000;5.39848000;2023-06-14T11:32:54;2.95;;;1.63;;
7829;SDS011;3960;51.86894000;5.39848000;2023-06-14T11:35:23;3.45;;;1.50;;
7829;SDS011;3960;51.86894000;5.39848000;2023-06-14T11:37:56;1.77;;;1.67;;
7829;SDS011;3960;51.86894000;5.39848000;2023-06-14T11:40:26;3.55;;;1.70;;
7829;SDS011;3960;51.86894000;5.39848000;2023-06-14T11:43:02;9.60;;;1.85;;
7829;SDS011;3960;51.86894000;5.39848000;2023-06-14T11:45:28;4.03;;;1.90;;
7829;SDS011;3960;51.86894000;5.39848000;2023-06-14T11:50:43;3.72;;;1.52;;
7829;SDS011;3960;51.86894000;5.39848000;2023-06-14T11:53:08;4.95;;;1.60;;
7829;SDS011;3960;51.86894000;5.39848000;2023-06-14T11:55:38;4.53;;;2.08;;
7829;SDS011;3960;51.86894000;5.39848000;2023-06-14T11:58:05;5.72;;;2.20;;
7829;SDS011;3960;51.86894000;5.39848000;2023-06-14T12:00:35;5.10;;;1.90;;
7829;SDS011;3960;51.86894000;5.39848000;2023-06-14T12:03:01;8.13;;;2.00;;
7829;SDS011;3960;51.86894000;5.39848000;2023-06-14T12:05:28;3.72;;;1.73;;
7829;SDS011;3960;51.86894000;5.39848000;2023-06-14T12:08:02;7.35;;;1.80;;
7829;SDS011;3960;51.86894000;5.39848000;2023-06-14T12:10:30;6.28;;;2.00;;
7829;SDS011;3960;51.86894000;5.39848000;2023-06-14T12:13:11;9.07;;;1.80;;
7829;SDS011;3960;51.86894000;5.39848000;2023-06-14T12:15:53;3.45;;;1.77;;
7829;SDS011;3960;51.86894000;5.39848000;2023-06-14T12:18:32;6.80;;;2.03;;
7829;SDS011;3960;51.86894000;5.39848000;2023-06-14T12:21:07;5.63;;;1.70;;
7829;SDS011;3960;51.86894000;5.39848000;2023-06-14T12:23:46;3.83;;;2.08;;
7829;SDS011;3960;51.86894000;5.39848000;2023-06-14T12:26:16;3.35;;;2.15;;
7829;SDS011;3960;51.86894000;5.39848000;2023-06-14T12:28:44;3.20;;;1.73;;
7829;SDS011;3960;51.86894000;5.39848000;2023-06-14T12:31:11;4.28;;;1.90;;
7829;SDS011;3960;51.86894000;5.39848000;2023-06-14T12:33:38;4.68;;;1.98;;
7829;SDS011;3960;51.86894000;5.39848000;2023-06-14T12:36:04;5.28;;;1.80;;
7829;SDS011;3960;51.86894000;5.39848000;2023-06-14T12:38:35;4.57;;;2.05;;
7829;SDS011;3960;51.86894000;5.39848000;2023-06-14T12:41:01;5.53;;;1.60;;
7829;SDS011;3960;51.86894000;5.39848000;2023-06-14T12:43:26;5.63;;;1.70;;
7829;SDS011;3960;51.86894000;5.39848000;2023-06-14T12:45:57;5.25;;;2.15;;
7829;SDS011;3960;51.86894000;5.39848000;2023-06-14T12:48:22;8.20;;;1.70;;
7829;SDS011;3960;51.86894000;5.39848000;2023-06-14T12:50:48;6.28;;;2.10;;
7829;SDS011;3960;51.86894000;5.39848000;2023-06-14T12:53:23;5.35;;;1.90;;
7829;SDS011;3960;51.86894000;5.39848000;2023-06-14T12:56:01;4.15;;;1.70;;
7829;SDS011;3960;51.86894000;5.39848000;2023-06-14T12:58:26;1.95;;;1.52;;
7829;SDS011;3960;51.86894000;5.39848000;2023-06-14T13:01:01;5.03;;;1.80;;
7829;SDS011;3960;51.86894000;5.39848000;2023-06-14T13:03:29;9.38;;;1.90;;
7829;SDS011;3960;51.86894000;5.39848000;2023-06-14T13:06:00;6.47;;;1.80;;
7829;SDS011;3960;51.86894000;5.39848000;2023-06-14T13:08:29;4.68;;;1.98;;
7829;SDS011;3960;51.86894000;5.39848000;2023-06-14T13:10:59;2.80;;;1.65;;
7829;SDS011;3960;51.86894000;5.39848000;2023-06-14T13:13:31;3.63;;;1.80;;
7829;SDS011;3960;51.86894000;5.39848000;2023-06-14T13:16:05;6.63;;;1.50;;
7829;SDS011;3960;51.86894000;5.39848000;2023-06-14T13:18:40;3.17;;;1.70;;
7829;SDS011;3960;51.86894000;5.39848000;2023-06-14T13:21:51;6.35;;;1.80;;
7829;SDS011;3960;51.86894000;5.39848000;2023-06-14T13:24:19;2.53;;;1.50;;
7829;SDS011;3960;51.86894000;5.39848000;2023-06-14T13:26:58;6.18;;;1.58;;
7829;SDS011;3960;51.86894000;5.39848000;2023-06-14T13:29:36;2.55;;;1.65;;
7829;SDS011;3960;51.86894000;5.39848000;2023-06-14T13:32:17;7.78;;;1.80;;
7829;SDS011;3960;51.86894000;5.39848000;2023-06-14T13:34:59;3.72;;;1.85;;
7829;SDS011;3960;51.86894000;5.39848000;2023-06-14T13:38:09;4.22;;;2.00;;
7829;SDS011;3960;51.86894000;5.39848000;2023-06-14T13:40:37;5.28;;;1.95;;